createdAt,value
2019-02-19T00:00:21.118Z,1010.37
2019-02-19T00:01:21.107Z,1010.41
2019-02-19T00:02:21.095Z,1010.40
2019-02-19T00:03:21.088Z,1010.38
2019-02-19T00:04:21.077Z,1010.37
2019-02-19T00:05:21.076Z,1010.36
2019-02-19T00:06:21.053Z,1010.29
2019-02-19T00:07:21.043Z,1010.39
2019-02-19T00:08:21.035Z,1010.37
2019-02-19T00:09:21.024Z,1010.35
2019-02-19T00:10:21.009Z,1010.39
2019-02-19T00:11:21.010Z,1010.44
2019-02-19T00:12:20.988Z,1010.39
2019-02-19T00:13:20.989Z,1010.40
2019-02-19T00:14:20.966Z,1010.35
2019-02-19T00:15:20.955Z,1010.46
2019-02-19T00:16:20.944Z,1010.38
2019-02-19T00:17:20.946Z,1010.44
2019-02-19T00:18:20.925Z,1010.41
2019-02-19T00:19:20.912Z,1010.38
2019-02-19T00:20:20.904Z,1010.37
2019-02-19T00:21:20.889Z,1010.37
2019-02-19T00:22:20.881Z,1010.33
2019-02-19T00:23:20.881Z,1010.32
2019-02-19T00:24:20.857Z,1010.38
2019-02-19T00:25:20.849Z,1010.34
2019-02-19T00:26:20.835Z,1010.33
2019-02-19T00:27:20.828Z,1010.38
2019-02-19T00:28:20.822Z,1010.36
2019-02-19T00:29:20.812Z,1010.37
2019-02-19T00:30:20.792Z,1010.35
2019-02-19T00:31:20.790Z,1010.41
2019-02-19T00:32:20.770Z,1010.36
2019-02-19T00:33:20.777Z,1010.38
2019-02-19T00:34:20.751Z,1010.38
2019-02-19T00:35:20.750Z,1010.37
2019-02-19T00:36:20.724Z,1010.36
2019-02-19T00:37:20.716Z,1010.40
2019-02-19T00:38:20.703Z,1010.35
2019-02-19T00:39:20.698Z,1010.35
2019-02-19T00:40:20.684Z,1010.35
2019-02-19T00:41:20.680Z,1010.38
2019-02-19T00:42:20.659Z,1010.39
2019-02-19T00:43:20.649Z,1010.39
2019-02-19T00:44:20.640Z,1010.41
2019-02-19T00:45:20.629Z,1010.38
2019-02-19T00:46:20.616Z,1010.36
2019-02-19T00:47:20.619Z,1010.37
2019-02-19T00:48:20.595Z,1010.41
2019-02-19T00:49:20.584Z,1010.40
2019-02-19T00:50:20.572Z,1010.42
2019-02-19T00:51:20.562Z,1010.42
2019-02-19T00:52:20.552Z,1010.41
2019-02-19T00:53:20.563Z,1010.40
2019-02-19T00:54:20.530Z,1010.41
2019-02-19T00:55:20.518Z,1010.37
2019-02-19T00:56:20.514Z,1010.43
2019-02-19T00:57:20.499Z,1010.38
2019-02-19T00:58:20.493Z,1010.41
2019-02-19T00:59:20.488Z,1010.39
2019-02-19T01:00:20.465Z,1010.41
2019-02-19T01:01:20.454Z,1010.43
2019-02-19T01:02:20.445Z,1010.43
2019-02-19T01:03:20.433Z,1010.41
2019-02-19T01:04:20.424Z,1010.43
2019-02-19T01:05:20.423Z,1010.46
2019-02-19T01:06:20.402Z,1010.43
2019-02-19T01:07:20.389Z,1010.46
2019-02-19T01:08:20.379Z,1010.46
2019-02-19T01:09:20.370Z,1010.47
2019-02-19T01:10:20.359Z,1010.44
2019-02-19T01:11:20.359Z,1010.50
2019-02-19T01:12:20.337Z,1010.52
2019-02-19T01:13:20.334Z,1010.60
2019-02-19T01:14:20.316Z,1010.55
2019-02-19T01:15:25.387Z,1010.55
2019-02-19T01:16:21.307Z,1010.53
2019-02-19T01:17:20.288Z,1010.53
2019-02-19T01:18:20.274Z,1010.57
2019-02-19T01:19:20.262Z,1010.51
2019-02-19T01:20:20.253Z,1010.55
2019-02-19T01:21:20.242Z,1010.55
2019-02-19T01:22:20.242Z,1010.58
2019-02-19T01:23:20.221Z,1010.59
2019-02-19T01:24:20.213Z,1010.57
2019-02-19T01:25:20.202Z,1010.59
2019-02-19T01:26:20.189Z,1010.55
2019-02-19T01:27:20.178Z,1010.56
2019-02-19T01:28:20.182Z,1010.57
2019-02-19T01:29:20.157Z,1010.53
2019-02-19T01:30:20.147Z,1010.53
2019-02-19T01:31:20.136Z,1010.59
2019-02-19T01:32:20.127Z,1010.58
2019-02-19T01:33:20.116Z,1010.58
2019-02-19T01:34:20.119Z,1010.62
2019-02-19T01:35:20.096Z,1010.60
2019-02-19T01:36:20.083Z,1010.57
2019-02-19T01:37:20.072Z,1010.55
2019-02-19T01:38:20.064Z,1010.55
2019-02-19T01:39:20.051Z,1010.50
2019-02-19T01:40:20.053Z,1010.57
2019-02-19T01:41:20.032Z,1010.55
2019-02-19T01:42:20.020Z,1010.54
2019-02-19T01:43:20.009Z,1010.54
2019-02-19T01:44:19.998Z,1010.51
2019-02-19T01:45:19.987Z,1010.46
2019-02-19T01:46:19.992Z,1010.49
2019-02-19T01:47:19.966Z,1010.45
2019-02-19T01:48:19.956Z,1010.47
2019-02-19T01:49:19.946Z,1010.45
2019-02-19T01:50:19.935Z,1010.45
2019-02-19T01:51:19.925Z,1010.41
2019-02-19T01:52:19.923Z,1010.42
2019-02-19T01:53:19.902Z,1010.42
2019-02-19T01:54:19.891Z,1010.47
2019-02-19T01:55:19.880Z,1010.42
2019-02-19T01:56:19.869Z,1010.48
2019-02-19T01:57:19.859Z,1010.47
2019-02-19T01:58:19.860Z,1010.51
2019-02-19T01:59:19.837Z,1010.57
2019-02-19T02:00:19.827Z,1010.53
2019-02-19T02:01:19.817Z,1010.52
2019-02-19T02:02:19.805Z,1010.53
2019-02-19T02:03:19.793Z,1010.52
2019-02-19T02:04:19.794Z,1010.41
2019-02-19T02:05:19.773Z,1010.38
2019-02-19T02:06:19.762Z,1010.39
2019-02-19T02:07:19.751Z,1010.36
2019-02-19T02:08:19.739Z,1010.36
2019-02-19T02:09:19.729Z,1010.42
2019-02-19T02:10:19.731Z,1010.41
2019-02-19T02:11:19.707Z,1010.38
2019-02-19T02:12:19.696Z,1010.35
2019-02-19T02:13:19.685Z,1010.38
2019-02-19T02:14:19.677Z,1010.42
2019-02-19T02:15:19.663Z,1010.39
2019-02-19T02:16:19.663Z,1010.38
2019-02-19T02:17:19.641Z,1010.43
2019-02-19T02:18:19.631Z,1010.39
2019-02-19T02:19:19.621Z,1010.47
2019-02-19T02:20:19.609Z,1010.45
2019-02-19T02:21:19.597Z,1010.42
2019-02-19T02:22:19.603Z,1010.48
2019-02-19T02:23:19.575Z,1010.45
2019-02-19T02:24:19.565Z,1010.48
2019-02-19T02:25:19.554Z,1010.49
2019-02-19T02:26:19.545Z,1010.45
2019-02-19T02:27:19.531Z,1010.41
2019-02-19T02:28:19.532Z,1010.55
2019-02-19T02:29:19.511Z,1010.54
2019-02-19T02:30:19.507Z,1010.48
2019-02-19T02:31:19.488Z,1010.47
2019-02-19T02:32:19.477Z,1010.43
2019-02-19T02:33:19.468Z,1010.44
2019-02-19T02:34:19.464Z,1010.39
2019-02-19T02:35:19.447Z,1010.40
2019-02-19T02:36:19.440Z,1010.40
2019-02-19T02:37:19.422Z,1010.34
2019-02-19T02:38:19.411Z,1010.38
2019-02-19T02:39:19.400Z,1010.46
2019-02-19T02:40:19.403Z,1010.43
2019-02-19T02:41:19.382Z,1010.43
2019-02-19T02:42:19.368Z,1010.48
2019-02-19T02:43:19.357Z,1010.49
2019-02-19T02:44:19.346Z,1010.45
2019-02-19T02:45:19.338Z,1010.56
2019-02-19T02:46:19.338Z,1010.56
2019-02-19T02:47:19.314Z,1010.58
2019-02-19T02:48:19.303Z,1010.57
2019-02-19T02:49:19.307Z,1010.59
2019-02-19T02:50:19.286Z,1010.59
2019-02-19T02:51:19.269Z,1010.55
2019-02-19T02:52:19.273Z,1010.62
2019-02-19T02:53:19.252Z,1010.59
2019-02-19T02:54:19.241Z,1010.60
2019-02-19T02:55:19.226Z,1010.55
2019-02-19T02:56:19.216Z,1010.53
2019-02-19T02:57:19.205Z,1010.55
2019-02-19T02:58:19.210Z,1010.53
2019-02-19T02:59:19.184Z,1010.52
2019-02-19T03:00:19.173Z,1010.56
2019-02-19T03:01:19.164Z,1010.60
2019-02-19T03:02:19.157Z,1010.60
2019-02-19T03:03:19.139Z,1010.59
2019-02-19T03:04:19.148Z,1010.68
2019-02-19T03:05:19.120Z,1010.67
2019-02-19T03:06:19.107Z,1010.65
2019-02-19T03:07:19.098Z,1010.65
2019-02-19T03:08:19.085Z,1010.69
2019-02-19T03:09:19.073Z,1010.68
2019-02-19T03:10:19.074Z,1010.66
2019-02-19T03:11:19.054Z,1010.75
2019-02-19T03:12:19.040Z,1010.68
2019-02-19T03:13:19.030Z,1010.69
2019-02-19T03:14:19.020Z,1010.73
2019-02-19T03:15:19.022Z,1010.68
2019-02-19T03:16:19.007Z,1010.66
2019-02-19T03:17:18.990Z,1010.68
2019-02-19T03:18:18.975Z,1010.70
2019-02-19T03:19:18.964Z,1010.69
2019-02-19T03:20:18.955Z,1010.68
2019-02-19T03:21:18.942Z,1010.70
2019-02-19T03:22:18.941Z,1010.69
2019-02-19T03:23:18.920Z,1010.73
2019-02-19T03:24:18.910Z,1010.67
2019-02-19T03:25:18.898Z,1010.65
2019-02-19T03:26:18.887Z,1010.66
2019-02-19T03:27:18.877Z,1010.70
2019-02-19T03:28:18.876Z,1010.66
2019-02-19T03:29:18.855Z,1010.71
2019-02-19T03:30:18.843Z,1010.74
2019-02-19T03:31:18.833Z,1010.69
2019-02-19T03:32:18.844Z,1010.73
2019-02-19T03:33:18.811Z,1010.79
2019-02-19T03:34:18.822Z,1010.76
2019-02-19T03:35:18.789Z,1010.74
2019-02-19T03:36:18.776Z,1010.75
2019-02-19T03:37:18.765Z,1010.78
2019-02-19T03:38:18.755Z,1010.83
2019-02-19T03:39:18.744Z,1010.81
2019-02-19T03:40:18.747Z,1010.82
2019-02-19T03:41:18.722Z,1010.78
2019-02-19T03:42:18.710Z,1010.86
2019-02-19T03:43:18.705Z,1010.85
2019-02-19T03:44:18.691Z,1010.83
2019-02-19T03:45:18.678Z,1010.82
2019-02-19T03:46:18.677Z,1010.84
2019-02-19T03:47:18.658Z,1010.87
2019-02-19T03:48:18.644Z,1010.88
2019-02-19T03:49:18.638Z,1010.95
2019-02-19T03:50:18.623Z,1010.92
2019-02-19T03:51:18.613Z,1010.91
2019-02-19T03:52:18.614Z,1010.95
2019-02-19T03:53:18.591Z,1010.94
2019-02-19T03:54:18.584Z,1010.97
2019-02-19T03:55:18.568Z,1010.91
2019-02-19T03:56:18.557Z,1010.93
2019-02-19T03:57:18.547Z,1010.92
2019-02-19T03:58:18.552Z,1010.89
2019-02-19T03:59:18.528Z,1010.88
2019-02-19T04:00:18.520Z,1010.86
2019-02-19T04:01:18.503Z,1010.85
2019-02-19T04:02:18.528Z,1010.87
2019-02-19T04:03:18.483Z,1010.88
2019-02-19T04:04:18.493Z,1010.84
2019-02-19T04:05:18.475Z,1010.86
2019-02-19T04:06:18.451Z,1010.86
2019-02-19T04:07:18.442Z,1010.89
2019-02-19T04:08:18.428Z,1010.89
2019-02-19T04:09:18.418Z,1010.89
2019-02-19T04:10:18.420Z,1010.91
2019-02-19T04:11:18.398Z,1010.90
2019-02-19T04:12:18.387Z,1010.86
2019-02-19T04:13:18.377Z,1010.85
2019-02-19T04:14:18.365Z,1010.79
2019-02-19T04:15:18.355Z,1010.82
2019-02-19T04:16:21.235Z,1010.86
2019-02-19T04:17:18.333Z,1010.86
2019-02-19T04:18:18.323Z,1010.87
2019-02-19T04:19:18.315Z,1010.88
2019-02-19T04:20:18.301Z,1010.88
2019-02-19T04:21:18.292Z,1010.89
2019-02-19T04:22:18.297Z,1010.94
2019-02-19T04:23:18.271Z,1010.94
2019-02-19T04:24:18.260Z,1010.93
2019-02-19T04:25:18.248Z,1010.90
2019-02-19T04:26:18.238Z,1010.83
2019-02-19T04:27:18.238Z,1010.87
2019-02-19T04:28:18.235Z,1010.91
2019-02-19T04:29:18.206Z,1010.82
2019-02-19T04:30:18.197Z,1010.78
2019-02-19T04:31:18.186Z,1010.89
2019-02-19T04:32:18.179Z,1010.99
2019-02-19T04:33:18.163Z,1010.95
2019-02-19T04:34:18.165Z,1010.92
2019-02-19T04:35:18.142Z,1010.94
2019-02-19T04:36:18.132Z,1010.93
2019-02-19T04:37:18.121Z,1010.92
2019-02-19T04:38:18.110Z,1010.88
2019-02-19T04:39:18.100Z,1010.87
2019-02-19T04:40:18.104Z,1010.92
2019-02-19T04:41:18.080Z,1010.93
2019-02-19T04:42:18.071Z,1010.93
2019-02-19T04:43:18.057Z,1010.98
2019-02-19T04:44:18.048Z,1011.02
2019-02-19T04:45:18.043Z,1011.07
2019-02-19T04:46:18.037Z,1011.06
2019-02-19T04:47:18.017Z,1011.07
2019-02-19T04:48:18.013Z,1011.09
2019-02-19T04:49:17.997Z,1011.07
2019-02-19T04:50:19.735Z,1011.10
2019-02-19T04:51:17.975Z,1011.10
2019-02-19T04:52:17.983Z,1011.05
2019-02-19T04:53:17.954Z,1011.12
2019-02-19T04:54:17.942Z,1011.09
2019-02-19T04:55:17.934Z,1011.04
2019-02-19T04:56:17.920Z,1010.99
2019-02-19T04:57:17.910Z,1011.12
2019-02-19T04:58:17.910Z,1011.09
2019-02-19T04:59:17.890Z,1011.07
2019-02-19T05:00:17.878Z,1010.98
2019-02-19T05:01:17.881Z,1011.03
2019-02-19T05:02:17.856Z,1011.02
2019-02-19T05:03:17.851Z,1011.02
2019-02-19T05:04:17.856Z,1011.14
2019-02-19T05:05:17.825Z,1011.16
2019-02-19T05:06:17.813Z,1011.16
2019-02-19T05:07:17.802Z,1011.12
2019-02-19T05:08:17.793Z,1011.18
2019-02-19T05:09:17.782Z,1011.11
2019-02-19T05:10:17.783Z,1011.18
2019-02-19T05:11:17.760Z,1011.16
2019-02-19T05:12:17.750Z,1011.12
2019-02-19T05:13:17.740Z,1011.18
2019-02-19T05:14:17.769Z,1011.16
2019-02-19T05:15:17.719Z,1011.13
2019-02-19T05:16:17.717Z,1011.14
2019-02-19T05:17:17.700Z,1011.07
2019-02-19T05:18:17.686Z,1011.17
2019-02-19T05:19:17.675Z,1011.14
2019-02-19T05:20:17.665Z,1011.21
2019-02-19T05:21:17.654Z,1011.20
2019-02-19T05:22:17.658Z,1011.19
2019-02-19T05:23:17.634Z,1011.21
2019-02-19T05:24:17.622Z,1011.23
2019-02-19T05:25:17.612Z,1011.17
2019-02-19T05:26:17.612Z,1011.19
2019-02-19T05:27:17.590Z,1011.17
2019-02-19T05:28:17.588Z,1011.13
2019-02-19T05:29:17.571Z,1011.17
2019-02-19T05:30:17.557Z,1011.16
2019-02-19T05:31:17.546Z,1011.19
2019-02-19T05:32:17.535Z,1011.16
2019-02-19T05:33:17.526Z,1011.17
2019-02-19T05:34:17.526Z,1011.21
2019-02-19T05:35:17.515Z,1011.24
2019-02-19T05:36:17.492Z,1011.25
2019-02-19T05:37:17.487Z,1011.22
2019-02-19T05:38:17.470Z,1011.24
2019-02-19T05:39:17.467Z,1011.29
2019-02-19T05:40:17.480Z,1011.25
2019-02-19T05:41:17.438Z,1011.19
2019-02-19T05:42:17.430Z,1011.18
2019-02-19T05:43:17.415Z,1011.16
2019-02-19T05:44:17.406Z,1011.20
2019-02-19T05:45:17.395Z,1011.26
2019-02-19T05:46:17.412Z,1011.23
2019-02-19T05:47:17.376Z,1011.26
2019-02-19T05:48:17.363Z,1011.31
2019-02-19T05:49:17.353Z,1011.33
2019-02-19T05:50:17.344Z,1011.36
2019-02-19T05:51:17.333Z,1011.29
2019-02-19T05:52:17.333Z,1011.36
2019-02-19T05:53:17.310Z,1011.35
2019-02-19T05:54:17.299Z,1011.38
2019-02-19T05:55:17.288Z,1011.40
2019-02-19T05:56:17.278Z,1011.39
2019-02-19T05:57:17.273Z,1011.42
2019-02-19T05:58:17.270Z,1011.42
2019-02-19T05:59:17.246Z,1011.40
2019-02-19T06:00:17.234Z,1011.46
2019-02-19T06:01:17.227Z,1011.43
2019-02-19T06:02:17.213Z,1011.47
2019-02-19T06:03:17.201Z,1011.48
2019-02-19T06:04:17.208Z,1011.52
2019-02-19T06:05:17.191Z,1011.50
2019-02-19T06:06:17.169Z,1011.51
2019-02-19T06:07:17.158Z,1011.54
2019-02-19T06:08:17.147Z,1011.51
2019-02-19T06:09:17.138Z,1011.50
2019-02-19T06:10:17.143Z,1011.53
2019-02-19T06:11:17.114Z,1011.51
2019-02-19T06:12:17.103Z,1011.49
2019-02-19T06:13:17.138Z,1011.48
2019-02-19T06:14:17.084Z,1011.45
2019-02-19T06:15:17.076Z,1011.45
2019-02-19T06:16:17.082Z,1011.50
2019-02-19T06:17:17.049Z,1011.50
2019-02-19T06:18:17.038Z,1011.51
2019-02-19T06:19:17.026Z,1011.51
2019-02-19T06:20:17.016Z,1011.53
2019-02-19T06:21:17.006Z,1011.49
2019-02-19T06:22:17.005Z,1011.48
2019-02-19T06:23:16.984Z,1011.48
2019-02-19T06:24:16.973Z,1011.43
2019-02-19T06:25:16.968Z,1011.40
2019-02-19T06:26:16.950Z,1011.38
2019-02-19T06:27:16.940Z,1011.40
2019-02-19T06:28:16.941Z,1011.45
2019-02-19T06:29:16.917Z,1011.48
2019-02-19T06:30:16.907Z,1011.57
2019-02-19T06:31:16.895Z,1011.59
2019-02-19T06:32:16.890Z,1011.61
2019-02-19T06:33:16.875Z,1011.62
2019-02-19T06:34:16.874Z,1011.68
2019-02-19T06:35:16.853Z,1011.67
2019-02-19T06:36:16.844Z,1011.68
2019-02-19T06:37:16.831Z,1011.70
2019-02-19T06:38:16.821Z,1011.72
2019-02-19T06:39:16.809Z,1011.78
2019-02-19T06:40:16.815Z,1011.80
2019-02-19T06:41:16.788Z,1011.77
2019-02-19T06:42:16.778Z,1011.79
2019-02-19T06:43:16.770Z,1011.75
2019-02-19T06:44:16.757Z,1011.81
2019-02-19T06:45:16.761Z,1011.83
2019-02-19T06:46:16.746Z,1011.84
2019-02-19T06:47:16.725Z,1011.90
2019-02-19T06:48:16.717Z,1011.90
2019-02-19T06:49:16.704Z,1011.85
2019-02-19T06:50:16.694Z,1011.86
2019-02-19T06:51:16.685Z,1011.86
2019-02-19T06:52:16.683Z,1011.89
2019-02-19T06:53:16.661Z,1011.90
2019-02-19T06:54:16.652Z,1011.93
2019-02-19T06:55:16.652Z,1011.97
2019-02-19T06:56:16.631Z,1012.02
2019-02-19T06:57:16.630Z,1012.04
2019-02-19T06:58:16.619Z,1011.97
2019-02-19T06:59:16.598Z,1012.02
2019-02-19T07:00:16.587Z,1012.06
2019-02-19T07:01:16.576Z,1012.09
2019-02-19T07:02:16.571Z,1012.15
2019-02-19T07:03:16.556Z,1012.10
2019-02-19T07:04:16.556Z,1012.16
2019-02-19T07:05:16.534Z,1012.13
2019-02-19T07:06:16.527Z,1012.15
2019-02-19T07:07:16.514Z,1012.21
2019-02-19T07:08:16.503Z,1012.18
2019-02-19T07:09:16.494Z,1012.19
2019-02-19T07:10:16.501Z,1012.17
2019-02-19T07:11:16.473Z,1012.20
2019-02-19T07:12:16.460Z,1012.22
2019-02-19T07:13:16.451Z,1012.22
2019-02-19T07:14:16.439Z,1012.23
2019-02-19T07:15:16.428Z,1012.26
2019-02-19T07:16:16.429Z,1012.23
2019-02-19T07:17:16.412Z,1012.32
2019-02-19T07:18:16.396Z,1012.26
2019-02-19T07:19:16.384Z,1012.27
2019-02-19T07:20:16.397Z,1012.28
2019-02-19T07:21:16.366Z,1012.32
2019-02-19T07:22:16.365Z,1012.28
2019-02-19T07:23:16.343Z,1012.29
2019-02-19T07:24:16.334Z,1012.30
2019-02-19T07:25:16.343Z,1012.38
2019-02-19T07:26:16.354Z,1012.35
2019-02-19T07:27:16.302Z,1012.36
2019-02-19T07:28:16.320Z,1012.37
2019-02-19T07:29:16.279Z,1012.41
2019-02-19T07:30:16.268Z,1012.42
2019-02-19T07:31:16.258Z,1012.39
2019-02-19T07:32:16.250Z,1012.41
2019-02-19T07:33:16.237Z,1012.42
2019-02-19T07:34:16.238Z,1012.44
2019-02-19T07:35:16.216Z,1012.45
2019-02-19T07:36:16.216Z,1012.45
2019-02-19T07:37:16.196Z,1012.43
2019-02-19T07:38:16.185Z,1012.51
2019-02-19T07:39:16.174Z,1012.49
2019-02-19T07:40:17.496Z,1012.51
2019-02-19T07:41:16.150Z,1012.57
2019-02-19T07:42:16.142Z,1012.58
2019-02-19T07:43:16.140Z,1012.56
2019-02-19T07:44:16.118Z,1012.65
2019-02-19T07:45:16.107Z,1012.60
2019-02-19T07:46:16.106Z,1012.59
2019-02-19T07:47:24.259Z,1012.59
2019-02-19T07:48:17.073Z,1012.60
2019-02-19T07:49:16.064Z,1012.65
2019-02-19T07:50:16.053Z,1012.64
2019-02-19T07:51:16.042Z,1012.66
2019-02-19T07:52:16.045Z,1012.74
2019-02-19T07:53:16.021Z,1012.70
2019-02-19T07:54:16.015Z,1012.73
2019-02-19T07:55:16.001Z,1012.74
2019-02-19T07:56:15.990Z,1012.70
2019-02-19T07:57:15.979Z,1012.72
2019-02-19T07:58:15.981Z,1012.72
2019-02-19T07:59:15.956Z,1012.79
2019-02-19T08:00:15.947Z,1012.74
2019-02-19T08:01:15.935Z,1012.82
2019-02-19T08:02:15.924Z,1012.83
2019-02-19T08:03:15.913Z,1012.84
2019-02-19T08:04:15.914Z,1012.80
2019-02-19T08:05:15.891Z,1012.89
2019-02-19T08:06:15.885Z,1012.87
2019-02-19T08:07:15.871Z,1012.84
2019-02-19T08:08:15.860Z,1012.88
2019-02-19T08:09:15.851Z,1012.84
2019-02-19T08:10:15.849Z,1012.82
2019-02-19T08:11:15.828Z,1012.84
2019-02-19T08:12:15.818Z,1012.78
2019-02-19T08:13:15.806Z,1012.82
2019-02-19T08:14:15.795Z,1012.76
2019-02-19T08:15:15.787Z,1012.81
2019-02-19T08:16:15.784Z,1012.80
2019-02-19T08:17:15.764Z,1012.81
2019-02-19T08:18:15.754Z,1012.79
2019-02-19T08:19:15.750Z,1012.79
2019-02-19T08:20:16.441Z,1012.82
2019-02-19T08:21:15.720Z,1012.81
2019-02-19T08:22:15.727Z,1012.79
2019-02-19T08:23:15.698Z,1012.80
2019-02-19T08:24:15.687Z,1012.79
2019-02-19T08:25:15.676Z,1012.83
2019-02-19T08:26:15.666Z,1012.76
2019-02-19T08:27:15.654Z,1012.84
2019-02-19T08:28:15.659Z,1012.75
2019-02-19T08:29:15.634Z,1012.91
2019-02-19T08:30:15.621Z,1012.84
2019-02-19T08:31:15.613Z,1012.89
2019-02-19T08:32:15.600Z,1012.94
2019-02-19T08:33:15.589Z,1012.95
2019-02-19T08:34:15.590Z,1012.93
2019-02-19T08:35:15.570Z,1012.94
2019-02-19T08:36:15.558Z,1012.98
2019-02-19T08:37:15.548Z,1013.03
2019-02-19T08:38:15.538Z,1013.03
2019-02-19T08:39:15.525Z,1013.01
2019-02-19T08:40:15.537Z,1013.07
2019-02-19T08:41:15.542Z,1013.11
2019-02-19T08:42:15.493Z,1013.08
2019-02-19T08:43:15.482Z,1013.09
2019-02-19T08:44:15.472Z,1013.10
2019-02-19T08:45:15.463Z,1013.10
2019-02-19T08:46:15.460Z,1013.33
2019-02-19T08:47:15.438Z,1013.30
2019-02-19T08:48:15.428Z,1013.02
2019-02-19T08:49:15.417Z,1013.22
2019-02-19T08:50:15.405Z,1013.41
2019-02-19T08:51:15.395Z,1013.38
2019-02-19T08:52:15.396Z,1013.32
2019-02-19T08:53:15.374Z,1013.15
2019-02-19T08:54:15.364Z,1013.54
2019-02-19T08:55:15.354Z,1013.60
2019-02-19T08:56:15.341Z,1013.57
2019-02-19T08:57:15.338Z,1013.53
2019-02-19T08:58:15.342Z,1013.60
2019-02-19T08:59:15.312Z,1013.65
2019-02-19T09:00:15.301Z,1013.23
2019-02-19T09:01:15.290Z,1013.61
2019-02-19T09:02:15.278Z,1013.41
2019-02-19T09:03:16.869Z,1013.18
2019-02-19T09:04:15.265Z,1013.18
2019-02-19T09:05:15.244Z,1013.65
2019-02-19T09:06:15.256Z,1013.67
2019-02-19T09:07:15.225Z,1013.60
2019-02-19T09:08:15.217Z,1013.50
2019-02-19T09:09:15.200Z,1013.18
2019-02-19T09:10:15.211Z,1013.13
2019-02-19T09:11:15.182Z,1013.66
2019-02-19T09:12:15.169Z,1013.69
2019-02-19T09:13:15.157Z,1013.55
2019-02-19T09:14:15.147Z,1013.67
2019-02-19T09:15:15.138Z,1013.75
2019-02-19T09:16:15.142Z,1013.68
2019-02-19T09:17:15.112Z,1013.37
2019-02-19T09:18:15.101Z,1013.82
2019-02-19T09:19:15.091Z,1013.85
2019-02-19T09:20:15.079Z,1013.72
2019-02-19T09:21:15.068Z,1013.72
2019-02-19T09:22:15.074Z,1013.35
2019-02-19T09:23:15.048Z,1013.31
2019-02-19T09:24:15.037Z,1013.85
2019-02-19T09:25:15.024Z,1013.89
2019-02-19T09:26:15.013Z,1013.74
2019-02-19T09:27:15.002Z,1013.25
2019-02-19T09:28:15.009Z,1013.35
2019-02-19T09:29:14.984Z,1013.26
2019-02-19T09:30:14.971Z,1013.95
2019-02-19T09:31:14.958Z,1013.72
2019-02-19T09:32:14.947Z,1014.00
2019-02-19T09:33:14.936Z,1013.90
2019-02-19T09:34:14.939Z,1013.86
2019-02-19T09:35:14.914Z,1013.88
2019-02-19T09:36:14.903Z,1013.31
2019-02-19T09:37:14.893Z,1013.97
2019-02-19T09:38:14.882Z,1014.01
2019-02-19T09:39:14.871Z,1013.61
2019-02-19T09:40:14.879Z,1013.28
2019-02-19T09:41:14.848Z,1013.77
2019-02-19T09:42:14.837Z,1014.14
2019-02-19T09:43:14.826Z,1013.41
2019-02-19T09:44:14.816Z,1013.27
2019-02-19T09:45:14.804Z,1013.42
2019-02-19T09:46:14.809Z,1014.27
2019-02-19T09:47:14.785Z,1014.24
2019-02-19T09:48:14.776Z,1013.79
2019-02-19T09:49:14.760Z,1013.34
2019-02-19T09:50:14.748Z,1013.46
2019-02-19T09:51:14.739Z,1013.59
2019-02-19T09:52:14.737Z,1013.41
2019-02-19T09:53:14.716Z,1013.46
2019-02-19T09:54:14.706Z,1013.39
2019-02-19T09:55:14.695Z,1013.45
2019-02-19T09:56:14.682Z,1013.38
2019-02-19T09:57:14.674Z,1013.38
2019-02-19T09:58:14.673Z,1013.41
2019-02-19T09:59:14.649Z,1013.40
2019-02-19T10:00:14.705Z,1013.42
2019-02-19T10:01:14.628Z,1013.38
2019-02-19T10:02:14.616Z,1013.41
2019-02-19T10:03:14.607Z,1013.43
2019-02-19T10:04:14.606Z,1013.44
2019-02-19T10:05:14.583Z,1013.46
2019-02-19T10:06:14.573Z,1013.53
2019-02-19T10:07:14.585Z,1013.41
2019-02-19T10:08:14.555Z,1013.43
2019-02-19T10:09:14.549Z,1013.38
2019-02-19T10:10:14.540Z,1013.39
2019-02-19T10:11:14.519Z,1013.46
2019-02-19T10:12:14.511Z,1013.49
2019-02-19T10:13:14.498Z,1013.49
2019-02-19T10:14:14.489Z,1013.47
2019-02-19T10:15:14.474Z,1013.52
2019-02-19T10:16:14.475Z,1013.39
2019-02-19T10:17:14.454Z,1013.45
2019-02-19T10:18:14.441Z,1013.49
2019-02-19T10:19:14.435Z,1013.48
2019-02-19T10:20:14.419Z,1013.51
2019-02-19T10:21:14.408Z,1013.51
2019-02-19T10:22:14.408Z,1013.51
2019-02-19T10:23:14.386Z,1013.44
2019-02-19T10:24:14.388Z,1013.47
2019-02-19T10:25:14.363Z,1013.46
2019-02-19T10:26:14.359Z,1013.51
2019-02-19T10:27:14.345Z,1013.48
2019-02-19T10:28:14.341Z,1013.45
2019-02-19T10:29:14.320Z,1013.43
2019-02-19T10:30:14.308Z,1013.46
2019-02-19T10:31:14.298Z,1013.49
2019-02-19T10:32:14.288Z,1013.47
2019-02-19T10:33:14.316Z,1013.46
2019-02-19T10:34:14.283Z,1013.50
2019-02-19T10:35:14.254Z,1013.50
2019-02-19T10:36:14.243Z,1013.52
2019-02-19T10:37:14.233Z,1013.53
2019-02-19T10:38:14.240Z,1013.60
2019-02-19T10:39:14.211Z,1013.54
2019-02-19T10:40:14.215Z,1013.56
2019-02-19T10:41:14.190Z,1013.58
2019-02-19T10:42:14.184Z,1013.51
2019-02-19T10:43:14.169Z,1013.58
2019-02-19T10:44:14.159Z,1013.53
2019-02-19T10:45:14.146Z,1013.53
2019-02-19T10:46:14.145Z,1013.47
2019-02-19T10:47:14.128Z,1013.47
2019-02-19T10:48:18.937Z,1013.50
2019-02-19T10:49:15.103Z,1013.56
2019-02-19T10:50:14.093Z,1013.56
2019-02-19T10:51:14.081Z,1013.60
2019-02-19T10:52:14.081Z,1013.55
2019-02-19T10:53:14.061Z,1013.63
2019-02-19T10:54:14.049Z,1013.61
2019-02-19T10:55:14.044Z,1013.55
2019-02-19T10:56:14.031Z,1013.56
2019-02-19T10:57:14.018Z,1013.54
2019-02-19T10:58:22.220Z,1013.61
2019-02-19T10:59:15.000Z,1013.53
2019-02-19T11:00:13.986Z,1013.57
2019-02-19T11:01:13.984Z,1013.62
2019-02-19T11:02:13.964Z,1013.64
2019-02-19T11:03:13.953Z,1013.62
2019-02-19T11:04:13.952Z,1013.65
2019-02-19T11:05:13.931Z,1013.68
2019-02-19T11:06:13.921Z,1013.63
2019-02-19T11:07:13.913Z,1013.65
2019-02-19T11:08:13.906Z,1013.58
2019-02-19T11:09:13.887Z,1013.70
2019-02-19T11:10:13.888Z,1013.61
2019-02-19T11:11:13.866Z,1013.61
2019-02-19T11:12:13.858Z,1013.58
2019-02-19T11:13:13.845Z,1013.66
2019-02-19T11:14:13.833Z,1013.67
2019-02-19T11:15:13.826Z,1013.60
2019-02-19T11:16:13.829Z,1013.61
2019-02-19T11:17:13.801Z,1013.64
2019-02-19T11:18:13.790Z,1013.66
2019-02-19T11:19:13.780Z,1013.65
2019-02-19T11:20:13.767Z,1013.65
2019-02-19T11:21:19.741Z,1013.56
2019-02-19T11:22:14.755Z,1013.60
2019-02-19T11:23:13.738Z,1013.54
2019-02-19T11:24:13.728Z,1013.49
2019-02-19T11:25:13.714Z,1013.61
2019-02-19T11:26:13.702Z,1013.51
2019-02-19T11:27:13.698Z,1013.51
2019-02-19T11:28:13.691Z,1013.54
2019-02-19T11:29:13.670Z,1013.48
2019-02-19T11:30:13.659Z,1013.52
2019-02-19T11:31:13.647Z,1013.43
2019-02-19T11:32:13.637Z,1013.44
2019-02-19T11:33:13.629Z,1013.43
2019-02-19T11:34:13.626Z,1013.50
2019-02-19T11:35:13.611Z,1013.46
2019-02-19T11:36:13.594Z,1013.45
2019-02-19T11:37:13.584Z,1013.49
2019-02-19T11:38:13.573Z,1013.51
2019-02-19T11:39:13.566Z,1013.46
2019-02-19T11:40:13.605Z,1013.49
2019-02-19T11:41:13.541Z,1013.52
2019-02-19T11:42:13.530Z,1013.52
2019-02-19T11:43:13.519Z,1013.48
2019-02-19T11:44:13.508Z,1013.52
2019-02-19T11:45:13.498Z,1013.55
2019-02-19T11:46:13.501Z,1013.50
2019-02-19T11:47:13.478Z,1013.57
2019-02-19T11:48:13.468Z,1013.53
2019-02-19T11:49:13.454Z,1013.51
2019-02-19T11:50:13.469Z,1013.51
2019-02-19T11:51:13.437Z,1013.54
2019-02-19T11:52:13.432Z,1013.45
2019-02-19T11:53:13.411Z,1013.47
2019-02-19T11:54:13.400Z,1013.46
2019-02-19T11:55:13.390Z,1013.47
2019-02-19T11:56:13.413Z,1013.53
2019-02-19T11:57:13.367Z,1013.51
2019-02-19T11:58:13.366Z,1013.46
2019-02-19T11:59:13.384Z,1013.43
2019-02-19T12:00:13.336Z,1013.48
2019-02-19T12:01:13.324Z,1013.41
2019-02-19T12:02:13.321Z,1013.47
2019-02-19T12:03:13.303Z,1013.42
2019-02-19T12:04:13.301Z,1013.41
2019-02-19T12:05:13.281Z,1013.47